sensor_id;sensor_type;location;lat;lon;timestamp;P1;durP1;ratioP1;P2;durP2;ratioP2
6505;SDS011;3286;49.858;8.768;2023-04-06T00:00:02;4.97;;;3.33;;
6505;SDS011;3286;49.858;8.768;2023-04-06T00:02:32;5.93;;;3.77;;
6505;SDS011;3286;49.858;8.768;2023-04-06T00:04:59;5.93;;;3.63;;
6505;SDS011;3286;49.858;8.768;2023-04-06T00:07:26;5.10;;;3.60;;
6505;SDS011;3286;49.858;8.768;2023-04-06T00:09:53;4.23;;;3.27;;
6505;SDS011;3286;49.858;8.768;2023-04-06T00:12:21;4.37;;;3.40;;
6505;SDS011;3286;49.858;8.768;2023-04-06T00:14:48;6.97;;;3.27;;
6505;SDS011;3286;49.858;8.768;2023-04-06T00:17:14;6.77;;;3.93;;
6505;SDS011;3286;49.858;8.768;2023-04-06T00:19:41;7.13;;;3.03;;
6505;SDS011;3286;49.858;8.768;2023-04-06T00:22:08;4.10;;;3.10;;
6505;SDS011;3286;49.858;8.768;2023-04-06T00:24:35;4.00;;;3.20;;
6505;SDS011;3286;49.858;8.768;2023-04-06T00:27:01;4.60;;;3.33;;
6505;SDS011;3286;49.858;8.768;2023-04-06T00:29:29;4.23;;;3.03;;
6505;SDS011;3286;49.858;8.768;2023-04-06T00:31:56;3.97;;;3.17;;
6505;SDS011;3286;49.858;8.768;2023-04-06T00:34:23;5.97;;;3.27;;
6505;SDS011;3286;49.858;8.768;2023-04-06T00:36:50;3.87;;;3.03;;
6505;SDS011;3286;49.858;8.768;2023-04-06T00:39:16;4.47;;;3.10;;
6505;SDS011;3286;49.858;8.768;2023-04-06T00:41:44;4.13;;;3.20;;
6505;SDS011;3286;49.858;8.768;2023-04-06T00:44:15;3.93;;;2.90;;
6505;SDS011;3286;49.858;8.768;2023-04-06T00:46:43;4.83;;;3.20;;
6505;SDS011;3286;49.858;8.768;2023-04-06T00:49:10;5.37;;;3.43;;
6505;SDS011;3286;49.858;8.768;2023-04-06T00:51:37;3.50;;;3.00;;
6505;SDS011;3286;49.858;8.768;2023-04-06T00:54:04;5.30;;;3.10;;
6505;SDS011;3286;49.858;8.768;2023-04-06T00:56:31;5.83;;;3.00;;
6505;SDS011;3286;49.858;8.768;2023-04-06T00:58:58;4.97;;;3.40;;
6505;SDS011;3286;49.858;8.768;2023-04-06T01:01:25;7.97;;;3.27;;
6505;SDS011;3286;49.858;8.768;2023-04-06T01:03:53;4.83;;;3.40;;
6505;SDS011;3286;49.858;8.768;2023-04-06T01:06:20;4.77;;;3.40;;
6505;SDS011;3286;49.858;8.768;2023-04-06T01:08:47;5.00;;;3.50;;
6505;SDS011;3286;49.858;8.768;2023-04-06T01:11:14;5.33;;;3.27;;
6505;SDS011;3286;49.858;8.768;2023-04-06T01:13:41;4.50;;;3.30;;
6505;SDS011;3286;49.858;8.768;2023-04-06T01:16:07;6.40;;;3.50;;
6505;SDS011;3286;49.858;8.768;2023-04-06T01:18:34;10.90;;;3.93;;
6505;SDS011;3286;49.858;8.768;2023-04-06T01:21:03;4.03;;;3.10;;
6505;SDS011;3286;49.858;8.768;2023-04-06T01:23:32;5.77;;;3.40;;
6505;SDS011;3286;49.858;8.768;2023-04-06T01:25:59;4.30;;;3.23;;
6505;SDS011;3286;49.858;8.768;2023-04-06T01:28:25;4.87;;;3.60;;
6505;SDS011;3286;49.858;8.768;2023-04-06T01:30:52;4.70;;;3.53;;
6505;SDS011;3286;49.858;8.768;2023-04-06T01:33:19;5.37;;;3.60;;
6505;SDS011;3286;49.858;8.768;2023-04-06T01:35:45;5.10;;;3.13;;
6505;SDS011;3286;49.858;8.768;2023-04-06T01:38:12;5.87;;;4.00;;
6505;SDS011;3286;49.858;8.768;2023-04-06T01:40:40;8.87;;;3.33;;
6505;SDS011;3286;49.858;8.768;2023-04-06T01:43:07;4.57;;;3.20;;
6505;SDS011;3286;49.858;8.768;2023-04-06T01:45:33;3.63;;;3.23;;
6505;SDS011;3286;49.858;8.768;2023-04-06T01:48:00;3.87;;;3.20;;
6505;SDS011;3286;49.858;8.768;2023-04-06T01:50:27;4.73;;;3.47;;
6505;SDS011;3286;49.858;8.768;2023-04-06T01:52:54;5.67;;;3.30;;
6505;SDS011;3286;49.858;8.768;2023-04-06T01:55:21;9.17;;;3.20;;
6505;SDS011;3286;49.858;8.768;2023-04-06T01:57:49;5.13;;;3.37;;
6505;SDS011;3286;49.858;8.768;2023-04-06T02:00:16;5.17;;;3.50;;
6505;SDS011;3286;49.858;8.768;2023-04-06T02:02:42;5.13;;;3.47;;
6505;SDS011;3286;49.858;8.768;2023-04-06T02:05:09;6.03;;;3.30;;
6505;SDS011;3286;49.858;8.768;2023-04-06T02:07:36;6.60;;;3.27;;
6505;SDS011;3286;49.858;8.768;2023-04-06T02:10:03;4.50;;;3.10;;
6505;SDS011;3286;49.858;8.768;2023-04-06T02:12:30;8.20;;;3.30;;
6505;SDS011;3286;49.858;8.768;2023-04-06T02:14:58;4.53;;;3.50;;
6505;SDS011;3286;49.858;8.768;2023-04-06T02:17:25;4.87;;;3.67;;
6505;SDS011;3286;49.858;8.768;2023-04-06T02:19:52;4.80;;;3.43;;
6505;SDS011;3286;49.858;8.768;2023-04-06T02:22:18;5.03;;;3.80;;
6505;SDS011;3286;49.858;8.768;2023-04-06T02:24:45;5.93;;;3.87;;
6505;SDS011;3286;49.858;8.768;2023-04-06T02:27:13;6.20;;;3.90;;
6505;SDS011;3286;49.858;8.768;2023-04-06T02:29:40;4.77;;;3.50;;
6505;SDS011;3286;49.858;8.768;2023-04-06T02:32:08;4.50;;;3.33;;
6505;SDS011;3286;49.858;8.768;2023-04-06T02:34:35;4.50;;;3.43;;
6505;SDS011;3286;49.858;8.768;2023-04-06T02:37:01;4.90;;;3.40;;
6505;SDS011;3286;49.858;8.768;2023-04-06T02:39:28;4.53;;;3.40;;
6505;SDS011;3286;49.858;8.768;2023-04-06T02:41:55;4.83;;;3.50;;
6505;SDS011;3286;49.858;8.768;2023-04-06T02:44:22;6.30;;;4.00;;
6505;SDS011;3286;49.858;8.768;2023-04-06T02:46:49;5.10;;;3.17;;
6505;SDS011;3286;49.858;8.768;2023-04-06T02:49:17;4.73;;;3.53;;
6505;SDS011;3286;49.858;8.768;2023-04-06T02:51:44;4.43;;;3.30;;
6505;SDS011;3286;49.858;8.768;2023-04-06T02:54:10;7.40;;;3.60;;
6505;SDS011;3286;49.858;8.768;2023-04-06T02:56:37;6.67;;;3.70;;
6505;SDS011;3286;49.858;8.768;2023-04-06T02:59:04;7.87;;;3.93;;
6505;SDS011;3286;49.858;8.768;2023-04-06T03:01:30;6.03;;;3.90;;
6505;SDS011;3286;49.858;8.768;2023-04-06T03:03:57;5.63;;;3.90;;
6505;SDS011;3286;49.858;8.768;2023-04-06T03:06:25;6.13;;;3.60;;
6505;SDS011;3286;49.858;8.768;2023-04-06T03:08:52;5.33;;;3.40;;
6505;SDS011;3286;49.858;8.768;2023-04-06T03:11:19;5.43;;;3.50;;
6505;SDS011;3286;49.858;8.768;2023-04-06T03:13:46;5.00;;;3.87;;
6505;SDS011;3286;49.858;8.768;2023-04-06T03:16:12;10.63;;;3.57;;
6505;SDS011;3286;49.858;8.768;2023-04-06T03:18:39;7.67;;;4.13;;
6505;SDS011;3286;49.858;8.768;2023-04-06T03:21:06;4.43;;;3.50;;
6505;SDS011;3286;49.858;8.768;2023-04-06T03:23:34;8.10;;;3.67;;
6505;SDS011;3286;49.858;8.768;2023-04-06T03:26:01;5.97;;;3.77;;
6505;SDS011;3286;49.858;8.768;2023-04-06T03:28:27;5.10;;;3.20;;
6505;SDS011;3286;49.858;8.768;2023-04-06T03:30:54;8.00;;;3.37;;
6505;SDS011;3286;49.858;8.768;2023-04-06T03:33:21;4.77;;;3.30;;
6505;SDS011;3286;49.858;8.768;2023-04-06T03:35:48;6.50;;;3.50;;
6505;SDS011;3286;49.858;8.768;2023-04-06T03:38:14;5.00;;;3.37;;
6505;SDS011;3286;49.858;8.768;2023-04-06T03:40:42;6.70;;;3.67;;
6505;SDS011;3286;49.858;8.768;2023-04-06T03:43:09;5.40;;;3.73;;
6505;SDS011;3286;49.858;8.768;2023-04-06T03:45:36;5.33;;;4.00;;
6505;SDS011;3286;49.858;8.768;2023-04-06T03:48:02;6.17;;;4.20;;
6505;SDS011;3286;49.858;8.768;2023-04-06T03:50:29;5.87;;;3.73;;
6505;SDS011;3286;49.858;8.768;2023-04-06T03:52:56;6.53;;;3.73;;
6505;SDS011;3286;49.858;8.768;2023-04-06T03:55:23;5.07;;;3.83;;
6505;SDS011;3286;49.858;8.768;2023-04-06T03:57:51;4.20;;;3.37;;
6505;SDS011;3286;49.858;8.768;2023-04-06T04:00:18;6.27;;;4.07;;
6505;SDS011;3286;49.858;8.768;2023-04-06T04:02:44;4.90;;;3.67;;
6505;SDS011;3286;49.858;8.768;2023-04-06T04:05:11;6.43;;;3.70;;
6505;SDS011;3286;49.858;8.768;2023-04-06T04:07:38;5.33;;;3.70;;
6505;SDS011;3286;49.858;8.768;2023-04-06T04:10:05;6.20;;;3.30;;
6505;SDS011;3286;49.858;8.768;2023-04-06T04:12:32;5.33;;;3.80;;
6505;SDS011;3286;49.858;8.768;2023-04-06T04:15:00;8.07;;;4.30;;
6505;SDS011;3286;49.858;8.768;2023-04-06T04:17:28;5.53;;;3.93;;
6505;SDS011;3286;49.858;8.768;2023-04-06T04:19:54;10.03;;;4.20;;
6505;SDS011;3286;49.858;8.768;2023-04-06T04:22:21;6.27;;;4.03;;
6505;SDS011;3286;49.858;8.768;2023-04-06T04:24:48;7.87;;;4.27;;
6505;SDS011;3286;49.858;8.768;2023-04-06T04:27:14;7.70;;;4.23;;
6505;SDS011;3286;49.858;8.768;2023-04-06T04:29:41;7.77;;;4.17;;
6505;SDS011;3286;49.858;8.768;2023-04-06T04:32:10;6.03;;;4.17;;
6505;SDS011;3286;49.858;8.768;2023-04-06T04:34:37;6.20;;;4.23;;
6505;SDS011;3286;49.858;8.768;2023-04-06T04:37:05;5.03;;;3.70;;
6505;SDS011;3286;49.858;8.768;2023-04-06T04:39:32;6.60;;;3.83;;
6505;SDS011;3286;49.858;8.768;2023-04-06T04:41:58;5.60;;;4.00;;
6505;SDS011;3286;49.858;8.768;2023-04-06T04:44:25;9.53;;;3.63;;
6505;SDS011;3286;49.858;8.768;2023-04-06T04:46:52;7.53;;;4.20;;
6505;SDS011;3286;49.858;8.768;2023-04-06T04:49:20;5.43;;;4.10;;
6505;SDS011;3286;49.858;8.768;2023-04-06T04:51:47;7.27;;;4.20;;
6505;SDS011;3286;49.858;8.768;2023-04-06T04:54:16;7.17;;;4.40;;
6505;SDS011;3286;49.858;8.768;2023-04-06T04:56:43;5.73;;;4.10;;
6505;SDS011;3286;49.858;8.768;2023-04-06T04:59:10;7.77;;;4.27;;
6505;SDS011;3286;49.858;8.768;2023-04-06T05:01:36;5.63;;;4.13;;
6505;SDS011;3286;49.858;8.768;2023-04-06T05:04:03;5.03;;;3.60;;
6505;SDS011;3286;49.858;8.768;2023-04-06T05:06:31;5.23;;;3.90;;
6505;SDS011;3286;49.858;8.768;2023-04-06T05:08:58;10.83;;;4.70;;
6505;SDS011;3286;49.858;8.768;2023-04-06T05:11:25;6.70;;;4.00;;
6505;SDS011;3286;49.858;8.768;2023-04-06T05:13:52;5.47;;;4.27;;
6505;SDS011;3286;49.858;8.768;2023-04-06T05:16:18;8.00;;;4.33;;
6505;SDS011;3286;49.858;8.768;2023-04-06T05:18:46;6.80;;;3.90;;
6505;SDS011;3286;49.858;8.768;2023-04-06T05:21:13;7.07;;;4.63;;
6505;SDS011;3286;49.858;8.768;2023-04-06T05:23:41;7.07;;;4.43;;
6505;SDS011;3286;49.858;8.768;2023-04-06T05:26:08;8.20;;;4.33;;
6505;SDS011;3286;49.858;8.768;2023-04-06T05:28:35;10.23;;;4.70;;
6505;SDS011;3286;49.858;8.768;2023-04-06T05:31:02;6.23;;;4.20;;
6505;SDS011;3286;49.858;8.768;2023-04-06T05:33:29;5.67;;;4.33;;
6505;SDS011;3286;49.858;8.768;2023-04-06T05:35:56;6.13;;;4.20;;
6505;SDS011;3286;49.858;8.768;2023-04-06T05:38:22;6.93;;;4.50;;
6505;SDS011;3286;49.858;8.768;2023-04-06T05:40:51;5.47;;;4.10;;
6505;SDS011;3286;49.858;8.768;2023-04-06T05:43:17;6.93;;;4.30;;
6505;SDS011;3286;49.858;8.768;2023-04-06T05:45:44;7.50;;;3.97;;
6505;SDS011;3286;49.858;8.768;2023-04-06T05:48:11;6.53;;;4.30;;
6505;SDS011;3286;49.858;8.768;2023-04-06T05:50:38;8.70;;;4.27;;
6505;SDS011;3286;49.858;8.768;2023-04-06T05:53:05;7.53;;;4.40;;
6505;SDS011;3286;49.858;8.768;2023-04-06T05:55:31;6.67;;;4.17;;
6505;SDS011;3286;49.858;8.768;2023-04-06T05:57:59;10.17;;;4.43;;
6505;SDS011;3286;49.858;8.768;2023-04-06T06:00:26;9.50;;;5.30;;
6505;SDS011;3286;49.858;8.768;2023-04-06T06:02:53;9.60;;;5.17;;
6505;SDS011;3286;49.858;8.768;2023-04-06T06:05:20;8.63;;;4.90;;
6505;SDS011;3286;49.858;8.768;2023-04-06T06:07:46;8.33;;;5.17;;
6505;SDS011;3286;49.858;8.768;2023-04-06T06:10:13;9.97;;;4.20;;
6505;SDS011;3286;49.858;8.768;2023-04-06T06:12:40;10.00;;;5.20;;
6505;SDS011;3286;49.858;8.768;2023-04-06T06:15:09;17.57;;;6.83;;
6505;SDS011;3286;49.858;8.768;2023-04-06T06:17:36;10.67;;;5.63;;
6505;SDS011;3286;49.858;8.768;2023-04-06T06:20:04;12.63;;;5.30;;
6505;SDS011;3286;49.858;8.768;2023-04-06T06:22:32;8.37;;;5.27;;
6505;SDS011;3286;49.858;8.768;2023-04-06T06:24:58;9.23;;;5.00;;
6505;SDS011;3286;49.858;8.768;2023-04-06T06:27:25;7.53;;;4.53;;
6505;SDS011;3286;49.858;8.768;2023-04-06T06:29:52;12.00;;;5.10;;
6505;SDS011;3286;49.858;8.768;2023-04-06T06:32:20;9.73;;;4.80;;
6505;SDS011;3286;49.858;8.768;2023-04-06T06:34:47;6.87;;;4.80;;
6505;SDS011;3286;49.858;8.768;2023-04-06T06:37:13;7.07;;;4.67;;
6505;SDS011;3286;49.858;8.768;2023-04-06T06:39:40;7.23;;;4.70;;
6505;SDS011;3286;49.858;8.768;2023-04-06T06:42:07;8.37;;;4.90;;
6505;SDS011;3286;49.858;8.768;2023-04-06T06:44:33;7.27;;;4.93;;
6505;SDS011;3286;49.858;8.768;2023-04-06T06:47:00;8.17;;;5.00;;
6505;SDS011;3286;49.858;8.768;2023-04-06T06:49:28;11.03;;;5.37;;
6505;SDS011;3286;49.858;8.768;2023-04-06T06:51:55;11.07;;;5.73;;
6505;SDS011;3286;49.858;8.768;2023-04-06T06:54:22;10.67;;;5.17;;
6505;SDS011;3286;49.858;8.768;2023-04-06T06:56:48;17.20;;;5.93;;
6505;SDS011;3286;49.858;8.768;2023-04-06T06:59:15;11.13;;;5.93;;
6505;SDS011;3286;49.858;8.768;2023-04-06T07:01:42;11.53;;;6.73;;
6505;SDS011;3286;49.858;8.768;2023-04-06T07:04:09;11.90;;;7.10;;
6505;SDS011;3286;49.858;8.768;2023-04-06T07:06:37;13.93;;;7.70;;
6505;SDS011;3286;49.858;8.768;2023-04-06T07:09:03;10.63;;;6.90;;
6505;SDS011;3286;49.858;8.768;2023-04-06T07:11:30;11.60;;;6.50;;
6505;SDS011;3286;49.858;8.768;2023-04-06T07:13:57;10.67;;;6.93;;
6505;SDS011;3286;49.858;8.768;2023-04-06T07:16:24;13.30;;;6.40;;
6505;SDS011;3286;49.858;8.768;2023-04-06T07:18:50;13.43;;;6.43;;
6505;SDS011;3286;49.858;8.768;2023-04-06T07:21:17;11.70;;;6.80;;
6505;SDS011;3286;49.858;8.768;2023-04-06T07:23:45;9.70;;;5.90;;
6505;SDS011;3286;49.858;8.768;2023-04-06T07:26:13;10.13;;;5.93;;
6505;SDS011;3286;49.858;8.768;2023-04-06T07:28:40;12.10;;;6.17;;
6505;SDS011;3286;49.858;8.768;2023-04-06T07:31:07;7.07;;;5.43;;
6505;SDS011;3286;49.858;8.768;2023-04-06T07:33:33;8.80;;;5.73;;
6505;SDS011;3286;49.858;8.768;2023-04-06T07:36:00;10.67;;;6.00;;
6505;SDS011;3286;49.858;8.768;2023-04-06T07:38:27;9.97;;;5.10;;
6505;SDS011;3286;49.858;8.768;2023-04-06T07:40:55;14.43;;;6.30;;
6505;SDS011;3286;49.858;8.768;2023-04-06T07:43:22;16.43;;;5.60;;
6505;SDS011;3286;49.858;8.768;2023-04-06T07:45:49;8.27;;;5.70;;
6505;SDS011;3286;49.858;8.768;2023-04-06T07:48:15;6.77;;;5.00;;
6505;SDS011;3286;49.858;8.768;2023-04-06T07:50:42;8.40;;;5.60;;
6505;SDS011;3286;49.858;8.768;2023-04-06T07:53:09;7.13;;;5.27;;
6505;SDS011;3286;49.858;8.768;2023-04-06T07:55:36;9.47;;;5.90;;
6505;SDS011;3286;49.858;8.768;2023-04-06T07:58:04;11.17;;;6.10;;
6505;SDS011;3286;49.858;8.768;2023-04-06T08:00:31;8.47;;;5.40;;
6505;SDS011;3286;49.858;8.768;2023-04-06T08:02:58;13.00;;;6.07;;
6505;SDS011;3286;49.858;8.768;2023-04-06T08:05:25;9.43;;;6.73;;
6505;SDS011;3286;49.858;8.768;2023-04-06T08:07:52;13.47;;;6.90;;
6505;SDS011;3286;49.858;8.768;2023-04-06T08:10:19;19.37;;;9.07;;
6505;SDS011;3286;49.858;8.768;2023-04-06T08:12:45;21.77;;;8.13;;
6505;SDS011;3286;49.858;8.768;2023-04-06T08:15:14;14.13;;;7.10;;
6505;SDS011;3286;49.858;8.768;2023-04-06T08:17:40;11.83;;;7.50;;
6505;SDS011;3286;49.858;8.768;2023-04-06T08:20:07;10.40;;;6.23;;
6505;SDS011;3286;49.858;8.768;2023-04-06T08:22:34;9.10;;;5.67;;
6505;SDS011;3286;49.858;8.768;2023-04-06T08:25:01;10.37;;;5.70;;
6505;SDS011;3286;49.858;8.768;2023-04-06T08:27:28;10.40;;;5.77;;
6505;SDS011;3286;49.858;8.768;2023-04-06T08:29:55;11.83;;;5.43;;
6505;SDS011;3286;49.858;8.768;2023-04-06T08:32:23;8.23;;;5.47;;
6505;SDS011;3286;49.858;8.768;2023-04-06T08:34:52;10.27;;;5.90;;
6505;SDS011;3286;49.858;8.768;2023-04-06T08:37:20;8.80;;;5.67;;
6505;SDS011;3286;49.858;8.768;2023-04-06T08:39:47;9.07;;;5.50;;
6505;SDS011;3286;49.858;8.768;2023-04-06T08:42:16;7.13;;;5.43;;
6505;SDS011;3286;49.858;8.768;2023-04-06T08:44:46;10.73;;;5.50;;
6505;SDS011;3286;49.858;8.768;2023-04-06T08:47:15;8.90;;;5.93;;
6505;SDS011;3286;49.858;8.768;2023-04-06T08:49:43;9.93;;;5.90;;
6505;SDS011;3286;49.858;8.768;2023-04-06T08:52:10;8.53;;;5.63;;
6505;SDS011;3286;49.858;8.768;2023-04-06T08:54:37;7.23;;;5.37;;
6505;SDS011;3286;49.858;8.768;2023-04-06T08:57:04;9.40;;;5.97;;
6505;SDS011;3286;49.858;8.768;2023-04-06T08:59:32;11.30;;;5.87;;
6505;SDS011;3286;49.858;8.768;2023-04-06T09:01:59;8.20;;;5.50;;
6505;SDS011;3286;49.858;8.768;2023-04-06T09:04:29;8.23;;;5.40;;
6505;SDS011;3286;49.858;8.768;2023-04-06T09:06:57;11.97;;;5.73;;
6505;SDS011;3286;49.858;8.768;2023-04-06T09:09:24;8.80;;;5.80;;
6505;SDS011;3286;49.858;8.768;2023-04-06T09:11:51;9.37;;;5.77;;
6505;SDS011;3286;49.858;8.768;2023-04-06T09:14:32;9.20;;;5.80;;
6505;SDS011;3286;49.858;8.768;2023-04-06T09:17:00;13.80;;;6.47;;
6505;SDS011;3286;49.858;8.768;2023-04-06T09:19:27;7.60;;;5.53;;
6505;SDS011;3286;49.858;8.768;2023-04-06T09:22:02;9.30;;;6.03;;
6505;SDS011;3286;49.858;8.768;2023-04-06T09:24:39;12.63;;;5.80;;
6505;SDS011;3286;49.858;8.768;2023-04-06T09:27:06;12.50;;;6.40;;
6505;SDS011;3286;49.858;8.768;2023-04-06T09:29:33;8.87;;;5.77;;
6505;SDS011;3286;49.858;8.768;2023-04-06T09:32:02;9.83;;;5.80;;
6505;SDS011;3286;49.858;8.768;2023-04-06T09:34:29;9.57;;;4.97;;
6505;SDS011;3286;49.858;8.768;2023-04-06T09:36:56;8.47;;;4.97;;
6505;SDS011;3286;49.858;8.768;2023-04-06T09:39:24;7.97;;;5.10;;
6505;SDS011;3286;49.858;8.768;2023-04-06T09:41:52;7.83;;;5.03;;
6505;SDS011;3286;49.858;8.768;2023-04-06T09:44:20;10.23;;;6.00;;
6505;SDS011;3286;49.858;8.768;2023-04-06T09:46:49;8.87;;;5.37;;
6505;SDS011;3286;49.858;8.768;2023-04-06T09:49:15;7.47;;;4.93;;
6505;SDS011;3286;49.858;8.768;2023-04-06T09:51:45;13.93;;;6.20;;
6505;SDS011;3286;49.858;8.768;2023-04-06T09:54:15;7.33;;;5.03;;
6505;SDS011;3286;49.858;8.768;2023-04-06T09:56:47;7.73;;;5.00;;
6505;SDS011;3286;49.858;8.768;2023-04-06T09:59:20;6.13;;;4.70;;
6505;SDS011;3286;49.858;8.768;2023-04-06T10:01:52;8.82;;;5.32;;
6505;SDS011;3286;49.858;8.768;2023-04-06T10:04:25;9.43;;;5.50;;
6505;SDS011;3286;49.858;8.768;2023-04-06T10:06:58;7.88;;;5.10;;
6505;SDS011;3286;49.858;8.768;2023-04-06T10:09:28;7.97;;;5.43;;
6505;SDS011;3286;49.858;8.768;2023-04-06T10:12:02;7.80;;;5.55;;
6505;SDS011;3286;49.858;8.768;2023-04-06T10:14:30;9.82;;;5.60;;
6505;SDS011;3286;49.858;8.768;2023-04-06T10:16:59;8.45;;;5.40;;
6505;SDS011;3286;49.858;8.768;2023-04-06T10:19:27;9.63;;;5.60;;
6505;SDS011;3286;49.858;8.768;2023-04-06T10:22:00;9.18;;;5.28;;
6505;SDS011;3286;49.858;8.768;2023-04-06T10:24:30;10.43;;;5.88;;
6505;SDS011;3286;49.858;8.768;2023-04-06T10:26:57;12.27;;;6.07;;
6505;SDS011;3286;49.858;8.768;2023-04-06T10:29:26;8.00;;;5.22;;
6505;SDS011;3286;49.858;8.768;2023-04-06T10:31:53;7.28;;;5.32;;
6505;SDS011;3286;49.858;8.768;2023-04-06T10:34:21;8.75;;;5.43;;
6505;SDS011;3286;49.858;8.768;2023-04-06T10:36:47;9.05;;;5.68;;
6505;SDS011;3286;49.858;8.768;2023-04-06T10:39:14;11.30;;;5.38;;
6505;SDS011;3286;49.858;8.768;2023-04-06T10:41:52;8.98;;;5.70;;
6505;SDS011;3286;49.858;8.768;2023-04-06T10:44:19;8.15;;;5.90;;
6505;SDS011;3286;49.858;8.768;2023-04-06T10:46:58;9.63;;;5.90;;
6505;SDS011;3286;49.858;8.768;2023-04-06T10:49:26;7.70;;;5.65;;
6505;SDS011;3286;49.858;8.768;2023-04-06T10:51:53;10.38;;;5.40;;
6505;SDS011;3286;49.858;8.768;2023-04-06T10:54:21;12.68;;;5.30;;
6505;SDS011;3286;49.858;8.768;2023-04-06T10:56:48;8.68;;;5.50;;
6505;SDS011;3286;49.858;8.768;2023-04-06T10:59:18;7.65;;;5.50;;
6505;SDS011;3286;49.858;8.768;2023-04-06T11:01:45;8.65;;;5.80;;
6505;SDS011;3286;49.858;8.768;2023-04-06T11:04:16;12.82;;;5.30;;
6505;SDS011;3286;49.858;8.768;2023-04-06T11:06:46;8.38;;;5.40;;
6505;SDS011;3286;49.858;8.768;2023-04-06T11:09:22;7.72;;;4.68;;
6505;SDS011;3286;49.858;8.768;2023-04-06T11:11:51;6.97;;;5.00;;
6505;SDS011;3286;49.858;8.768;2023-04-06T11:14:17;8.80;;;5.45;;
6505;SDS011;3286;49.858;8.768;2023-04-06T11:16:46;7.60;;;5.35;;
6505;SDS011;3286;49.858;8.768;2023-04-06T11:19:14;9.43;;;6.72;;
6505;SDS011;3286;49.858;8.768;2023-04-06T11:21:42;9.85;;;5.68;;
6505;SDS011;3286;49.858;8.768;2023-04-06T11:24:12;10.13;;;5.60;;
6505;SDS011;3286;49.858;8.768;2023-04-06T11:26:42;7.32;;;5.43;;
6505;SDS011;3286;49.858;8.768;2023-04-06T11:29:11;10.60;;;5.68;;
6505;SDS011;3286;49.858;8.768;2023-04-06T11:31:41;8.02;;;5.40;;
6505;SDS011;3286;49.858;8.768;2023-04-06T11:34:09;9.25;;;6.13;;
6505;SDS011;3286;49.858;8.768;2023-04-06T11:36:39;11.90;;;6.25;;
6505;SDS011;3286;49.858;8.768;2023-04-06T11:39:08;7.93;;;5.93;;
6505;SDS011;3286;49.858;8.768;2023-04-06T11:41:35;9.70;;;6.28;;
6505;SDS011;3286;49.858;8.768;2023-04-06T11:44:02;8.48;;;6.05;;
6505;SDS011;3286;49.858;8.768;2023-04-06T11:46:29;12.27;;;6.60;;
6505;SDS011;3286;49.858;8.768;2023-04-06T11:48:57;7.43;;;5.43;;
6505;SDS011;3286;49.858;8.768;2023-04-06T11:51:25;9.40;;;5.53;;
6505;SDS011;3286;49.858;8.768;2023-04-06T11:53:54;7.18;;;6.10;;
6505;SDS011;3286;49.858;8.768;2023-04-06T11:56:24;8.35;;;6.10;;
6505;SDS011;3286;49.858;8.768;2023-04-06T11:58:52;10.05;;;5.97;;
6505;SDS011;3286;49.858;8.768;2023-04-06T12:01:20;10.60;;;5.95;;
6505;SDS011;3286;49.858;8.768;2023-04-06T12:03:47;21.40;;;14.15;;
6505;SDS011;3286;49.858;8.768;2023-04-06T12:06:14;10.00;;;6.60;;
6505;SDS011;3286;49.858;8.768;2023-04-06T12:08:41;8.32;;;5.95;;
6505;SDS011;3286;49.858;8.768;2023-04-06T12:11:09;8.48;;;5.13;;
6505;SDS011;3286;49.858;8.768;2023-04-06T12:13:36;7.70;;;5.47;;
6505;SDS011;3286;49.858;8.768;2023-04-06T12:16:02;8.85;;;5.88;;
6505;SDS011;3286;49.858;8.768;2023-04-06T12:18:29;7.43;;;5.28;;
6505;SDS011;3286;49.858;8.768;2023-04-06T12:20:56;8.43;;;5.38;;
6505;SDS011;3286;49.858;8.768;2023-04-06T12:23:23;8.50;;;5.55;;
6505;SDS011;3286;49.858;8.768;2023-04-06T12:25:50;10.55;;;5.60;;
6505;SDS011;3286;49.858;8.768;2023-04-06T12:28:18;7.30;;;5.30;;
6505;SDS011;3286;49.858;8.768;2023-04-06T12:30:48;7.05;;;4.63;;
6505;SDS011;3286;49.858;8.768;2023-04-06T12:33:15;6.97;;;5.30;;
6505;SDS011;3286;49.858;8.768;2023-04-06T12:35:41;6.65;;;5.15;;
6505;SDS011;3286;49.858;8.768;2023-04-06T12:38:08;6.30;;;4.60;;
6505;SDS011;3286;49.858;8.768;2023-04-06T12:40:36;6.53;;;4.78;;
6505;SDS011;3286;49.858;8.768;2023-04-06T12:43:03;7.20;;;4.72;;
6505;SDS011;3286;49.858;8.768;2023-04-06T12:45:31;7.00;;;5.00;;
6505;SDS011;3286;49.858;8.768;2023-04-06T12:47:58;6.32;;;4.45;;
6505;SDS011;3286;49.858;8.768;2023-04-06T12:50:25;6.80;;;5.03;;
6505;SDS011;3286;49.858;8.768;2023-04-06T12:52:52;7.90;;;4.55;;
6505;SDS011;3286;49.858;8.768;2023-04-06T12:55:19;6.78;;;4.47;;
6505;SDS011;3286;49.858;8.768;2023-04-06T12:57:46;8.35;;;4.28;;
6505;SDS011;3286;49.858;8.768;2023-04-06T13:00:13;6.75;;;4.57;;
6505;SDS011;3286;49.858;8.768;2023-04-06T13:02:42;7.65;;;4.40;;
6505;SDS011;3286;49.858;8.768;2023-04-06T13:05:12;5.78;;;4.25;;
6505;SDS011;3286;49.858;8.768;2023-04-06T13:07:39;5.57;;;4.20;;
6505;SDS011;3286;49.858;8.768;2023-04-06T13:10:06;6.15;;;4.25;;
6505;SDS011;3286;49.858;8.768;2023-04-06T13:12:34;6.82;;;4.25;;
6505;SDS011;3286;49.858;8.768;2023-04-06T13:15:01;6.40;;;4.30;;
6505;SDS011;3286;49.858;8.768;2023-04-06T13:17:28;5.57;;;3.85;;
6505;SDS011;3286;49.858;8.768;2023-04-06T13:19:57;5.28;;;4.07;;
6505;SDS011;3286;49.858;8.768;2023-04-06T13:22:24;7.40;;;4.28;;
6505;SDS011;3286;49.858;8.768;2023-04-06T13:24:51;5.85;;;3.72;;
6505;SDS011;3286;49.858;8.768;2023-04-06T13:27:18;5.68;;;3.67;;
6505;SDS011;3286;49.858;8.768;2023-04-06T13:29:44;6.63;;;4.00;;
6505;SDS011;3286;49.858;8.768;2023-04-06T13:32:11;5.43;;;3.80;;
6505;SDS011;3286;49.858;8.768;2023-04-06T13:34:38;8.18;;;4.22;;
6505;SDS011;3286;49.858;8.768;2023-04-06T13:37:06;5.07;;;4.10;;
6505;SDS011;3286;49.858;8.768;2023-04-06T13:39:33;6.50;;;4.35;;
6505;SDS011;3286;49.858;8.768;2023-04-06T13:42:00;6.25;;;4.40;;
6505;SDS011;3286;49.858;8.768;2023-04-06T13:44:27;7.53;;;4.90;;
6505;SDS011;3286;49.858;8.768;2023-04-06T13:46:55;5.53;;;4.03;;
6505;SDS011;3286;49.858;8.768;2023-04-06T13:49:23;9.43;;;4.55;;
6505;SDS011;3286;49.858;8.768;2023-04-06T13:51:50;6.15;;;4.55;;
6505;SDS011;3286;49.858;8.768;2023-04-06T13:54:18;7.72;;;4.72;;
6505;SDS011;3286;49.858;8.768;2023-04-06T13:56:45;7.20;;;4.75;;
6505;SDS011;3286;49.858;8.768;2023-04-06T13:59:12;6.78;;;4.20;;
6505;SDS011;3286;49.858;8.768;2023-04-06T14:01:38;11.25;;;4.97;;
6505;SDS011;3286;49.858;8.768;2023-04-06T14:04:05;6.15;;;4.53;;
6505;SDS011;3286;49.858;8.768;2023-04-06T14:06:32;5.28;;;4.32;;
6505;SDS011;3286;49.858;8.768;2023-04-06T14:08:59;8.30;;;5.35;;
6505;SDS011;3286;49.858;8.768;2023-04-06T14:11:27;8.02;;;4.47;;
6505;SDS011;3286;49.858;8.768;2023-04-06T14:13:54;7.80;;;4.68;;
6505;SDS011;3286;49.858;8.768;2023-04-06T14:16:22;6.28;;;4.57;;
6505;SDS011;3286;49.858;8.768;2023-04-06T14:18:49;5.32;;;4.22;;
6505;SDS011;3286;49.858;8.768;2023-04-06T14:21:17;5.97;;;4.07;;
6505;SDS011;3286;49.858;8.768;2023-04-06T14:23:44;6.70;;;4.13;;
6505;SDS011;3286;49.858;8.768;2023-04-06T14:26:11;6.07;;;4.60;;
6505;SDS011;3286;49.858;8.768;2023-04-06T14:28:40;7.13;;;4.97;;
6505;SDS011;3286;49.858;8.768;2023-04-06T14:31:09;6.95;;;4.88;;
6505;SDS011;3286;49.858;8.768;2023-04-06T14:33:38;6.65;;;4.53;;
6505;SDS011;3286;49.858;8.768;2023-04-06T14:36:05;7.40;;;4.95;;
6505;SDS011;3286;49.858;8.768;2023-04-06T14:38:32;5.95;;;4.18;;
6505;SDS011;3286;49.858;8.768;2023-04-06T14:40:59;5.35;;;4.50;;
6505;SDS011;3286;49.858;8.768;2023-04-06T14:43:25;8.02;;;4.88;;
6505;SDS011;3286;49.858;8.768;2023-04-06T14:45:53;9.40;;;5.18;;
6505;SDS011;3286;49.858;8.768;2023-04-06T14:48:20;7.82;;;4.68;;
6505;SDS011;3286;49.858;8.768;2023-04-06T14:50:51;6.70;;;4.57;;
6505;SDS011;3286;49.858;8.768;2023-04-06T14:53:20;8.65;;;5.03;;
6505;SDS011;3286;49.858;8.768;2023-04-06T14:55:46;9.50;;;5.03;;
6505;SDS011;3286;49.858;8.768;2023-04-06T14:58:14;7.05;;;4.50;;
6505;SDS011;3286;49.858;8.768;2023-04-06T15:00:41;8.32;;;4.93;;
6505;SDS011;3286;49.858;8.768;2023-04-06T15:03:09;6.75;;;5.10;;
6505;SDS011;3286;49.858;8.768;2023-04-06T15:05:36;8.80;;;5.38;;
6505;SDS011;3286;49.858;8.768;2023-04-06T15:08:02;6.97;;;5.32;;
6505;SDS011;3286;49.858;8.768;2023-04-06T15:10:30;9.00;;;4.95;;
6505;SDS011;3286;49.858;8.768;2023-04-06T15:12:57;10.65;;;5.28;;